Tawakoni's Hourly Summary for Thursday, March 16, 2017
Hour Temp
(f)
RH
(%)
Solar Rad.
(MJ/m2)
Rainfall
(in)
Wind
(mph)
3/16/2017 12:00 AM 50 66 0 0 5.84
3/16/2017 1:00 AM 49 68 0 0 5.46
3/16/2017 2:00 AM 48 72 0 0 5.02
3/16/2017 3:00 AM 48 74 0 0 5.71
3/16/2017 4:00 AM 49 75 0 0 7.34
3/16/2017 5:00 AM 50 81 0 0 9.17
3/16/2017 6:00 AM 51 85 0 0 9.07
3/16/2017 7:00 AM 52 87 0 0 9.64
3/16/2017 8:00 AM 53 86 0.01 0 8.47
3/16/2017 9:00 AM 53 84 0.12 0 6.69
3/16/2017 10:00 AM 54 81 0.32 0 7.36
3/16/2017 11:00 AM 56 77 0.62 0 8.13
3/16/2017 12:00 PM 57 78 0.76 0 8.41
3/16/2017 1:00 PM 60 74 0.92 0 9.41
3/16/2017 2:00 PM 63 68 1.88 0 9.47
3/16/2017 3:00 PM 66 63 1.84 0 10.01
3/16/2017 4:00 PM 68 62 1.38 0 10.24
3/16/2017 5:00 PM 68 62 0.59 0 10.76
3/16/2017 6:00 PM 70 62 0.83 0 11.57
3/16/2017 7:00 PM 69 63 0.42 0 10.05
3/16/2017 8:00 PM 68 65 0.05 0 6.93
3/16/2017 9:00 PM 66 71 0 0 7.91
3/16/2017 10:00 PM 65 75 0 0 9.02
3/16/2017 11:00 PM 64 79 0 0 8.87
Data Summary 58 73 9.74 0.00 8.36